Terminal Aerodrome Forecast
Issued by NWS North Platte, NE

Home | Current Version | Previous Version | Text Only | Print | Product List | Glossary Off
Versions: 1 2 3 4 5 6 7 8 9 10 11 12 13 14

000
FTUS43 KLBF 222300
TAFVTN
TAF
KVTN 222321Z 2300/2324 17024G34KT P6SM BKN150
     FM230100 15019G27KT P6SM BKN120
     FM231400 19018G27KT P6SM BKN120
     FM231700 23017G25KT P6SM BKN100
     FM231900 33015G25KT P6SM BKN100=

USA.gov is the U.S. government's official web portal to all federal, state and local government web resources and services.